createdAt,value
2023-01-26T00:00:08.178Z,13.45
2023-01-26T00:02:53.401Z,13.80
2023-01-26T00:05:39.038Z,14.55
2023-01-26T00:08:24.494Z,16.58
2023-01-26T00:11:12.331Z,13.60
2023-01-26T00:13:59.744Z,13.35
2023-01-26T00:16:45.499Z,13.13
2023-01-26T00:19:30.627Z,13.57
2023-01-26T00:22:16.178Z,13.05
2023-01-26T00:25:01.557Z,11.23
2023-01-26T00:27:47.792Z,11.18
2023-01-26T00:30:32.952Z,12.75
2023-01-26T00:33:18.198Z,12.15
2023-01-26T00:36:03.954Z,12.25
2023-01-26T00:38:50.048Z,12.57
2023-01-26T00:41:53.898Z,11.43
2023-01-26T00:44:40.601Z,12.15
2023-01-26T00:47:25.938Z,13.57
2023-01-26T00:50:11.855Z,12.77
2023-01-26T00:52:57.605Z,13.60
2023-01-26T00:55:43.311Z,13.55
2023-01-26T00:58:28.641Z,12.75
2023-01-26T01:01:15.063Z,14.00
2023-01-26T01:04:00.882Z,14.98
2023-01-26T01:06:46.439Z,14.00
2023-01-26T01:09:31.701Z,14.35
2023-01-26T01:12:17.125Z,15.30
2023-01-26T01:15:02.657Z,14.30
2023-01-26T01:17:50.215Z,14.75
2023-01-26T01:20:35.717Z,15.20
2023-01-26T01:23:21.384Z,16.27
2023-01-26T01:26:07.036Z,15.57
2023-01-26T01:28:56.007Z,14.18
2023-01-26T01:31:43.152Z,13.85
2023-01-26T01:34:28.198Z,14.65
2023-01-26T01:37:15.162Z,15.63
2023-01-26T01:40:00.733Z,14.45
2023-01-26T01:42:48.303Z,13.95
2023-01-26T01:45:42.020Z,13.90
2023-01-26T01:48:36.473Z,12.52
2023-01-26T01:51:34.574Z,14.18
2023-01-26T01:54:30.287Z,12.13
2023-01-26T01:57:28.446Z,14.40
2023-01-26T02:00:19.549Z,13.38
2023-01-26T02:03:14.395Z,12.70
2023-01-26T02:06:28.896Z,13.68
2023-01-26T02:09:34.297Z,11.20
2023-01-26T02:12:23.293Z,12.30
2023-01-26T02:15:08.959Z,11.27
2023-01-26T02:17:54.811Z,11.70
2023-01-26T02:20:44.072Z,13.20
2023-01-26T02:23:52.402Z,13.60
2023-01-26T02:26:38.543Z,14.77
2023-01-26T02:29:24.214Z,16.67
2023-01-26T02:32:09.922Z,14.43
2023-01-26T02:34:57.760Z,16.42
2023-01-26T02:37:42.992Z,15.98
2023-01-26T02:40:48.681Z,16.23
2023-01-26T02:43:35.071Z,16.58
2023-01-26T02:46:22.368Z,14.52
2023-01-26T02:49:26.284Z,15.23
2023-01-26T02:52:11.387Z,16.60
2023-01-26T02:55:15.441Z,17.00
2023-01-26T02:58:02.978Z,16.13
2023-01-26T03:00:50.812Z,16.35
2023-01-26T03:03:42.289Z,16.90
2023-01-26T03:06:27.509Z,15.85
2023-01-26T03:09:15.421Z,15.45
2023-01-26T03:12:00.791Z,16.73
2023-01-26T03:14:46.645Z,14.40
2023-01-26T03:17:32.001Z,17.55
2023-01-26T03:20:52.885Z,15.82
2023-01-26T03:23:57.103Z,13.88
2023-01-26T03:27:05.332Z,13.40
2023-01-26T03:29:51.467Z,15.13
2023-01-26T03:32:36.965Z,16.63
2023-01-26T03:35:24.596Z,13.80
2023-01-26T03:38:10.355Z,13.80
2023-01-26T03:41:24.025Z,13.30
2023-01-26T03:44:27.917Z,14.07
2023-01-26T03:47:33.102Z,12.63
2023-01-26T03:50:36.921Z,14.05
2023-01-26T03:53:42.621Z,13.55
2023-01-26T03:56:33.452Z,12.60
2023-01-26T03:59:37.774Z,13.77
2023-01-26T04:02:44.464Z,12.88
2023-01-26T04:05:48.670Z,12.77
2023-01-26T04:08:33.695Z,12.52
2023-01-26T04:11:21.048Z,13.52
2023-01-26T04:14:25.171Z,13.57
2023-01-26T04:17:29.371Z,12.85
2023-01-26T04:20:34.373Z,12.88
2023-01-26T04:23:20.104Z,11.43
2023-01-26T04:26:07.304Z,11.27
2023-01-26T04:28:53.148Z,10.57
2023-01-26T04:31:39.591Z,11.05
2023-01-26T04:34:24.694Z,11.65
2023-01-26T04:37:10.570Z,11.07
2023-01-26T04:40:04.252Z,11.20
2023-01-26T04:42:50.974Z,12.07
2023-01-26T04:45:36.329Z,12.95
2023-01-26T04:48:21.551Z,11.35
2023-01-26T04:51:14.181Z,11.90
2023-01-26T04:53:59.447Z,12.20
2023-01-26T04:56:45.630Z,12.52
2023-01-26T04:59:30.936Z,13.90
2023-01-26T05:02:19.178Z,14.07
2023-01-26T05:05:04.845Z,13.32
2023-01-26T05:07:50.448Z,14.68
2023-01-26T05:10:35.995Z,14.27
2023-01-26T05:13:43.259Z,13.70
2023-01-26T05:16:34.566Z,13.48
2023-01-26T05:19:37.480Z,14.52
2023-01-26T05:22:49.224Z,13.13
2023-01-26T05:25:58.326Z,14.93
2023-01-26T05:28:43.704Z,13.05
2023-01-26T05:31:29.264Z,14.63
2023-01-26T05:34:14.633Z,13.98
2023-01-26T05:37:00.108Z,14.35
2023-01-26T05:39:45.816Z,13.50
2023-01-26T05:42:31.855Z,13.45
2023-01-26T05:45:33.027Z,11.73
2023-01-26T05:48:19.881Z,12.55
2023-01-26T05:51:09.021Z,12.52
2023-01-26T05:53:55.642Z,12.23
2023-01-26T05:56:41.011Z,12.05
2023-01-26T05:59:26.421Z,11.68
2023-01-26T06:02:12.750Z,12.30
2023-01-26T06:05:00.101Z,11.68
2023-01-26T06:07:45.394Z,10.80
2023-01-26T06:10:36.239Z,10.95
2023-01-26T06:13:33.317Z,11.38
2023-01-26T06:16:33.930Z,11.38
2023-01-26T06:19:19.135Z,11.00
2023-01-26T06:22:11.898Z,10.02
2023-01-26T06:25:00.383Z,10.68
2023-01-26T06:27:45.495Z,10.35
2023-01-26T06:30:43.911Z,11.10
2023-01-26T06:33:36.295Z,10.13
2023-01-26T06:36:22.698Z,11.02
2023-01-26T06:39:11.326Z,10.60
2023-01-26T06:41:56.813Z,10.93
2023-01-26T06:44:42.289Z,11.25
2023-01-26T06:47:27.580Z,12.18
2023-01-26T06:50:15.568Z,10.68
2023-01-26T06:53:04.182Z,11.35
2023-01-26T06:55:58.855Z,11.45
2023-01-26T06:58:52.824Z,11.40
2023-01-26T07:01:57.718Z,11.73
2023-01-26T07:04:43.304Z,12.02
2023-01-26T07:07:29.129Z,11.93
2023-01-26T07:10:14.545Z,11.35
2023-01-26T07:12:59.640Z,12.13
2023-01-26T07:15:44.844Z,12.07
2023-01-26T07:18:30.410Z,11.48
2023-01-26T07:21:18.715Z,11.40
2023-01-26T07:24:04.326Z,11.88
2023-01-26T07:26:49.688Z,11.05
2023-01-26T07:29:35.070Z,10.50
2023-01-26T07:32:20.574Z,10.63
2023-01-26T07:35:07.088Z,10.20
2023-01-26T07:37:52.138Z,11.95
2023-01-26T07:40:37.620Z,11.45
2023-01-26T07:43:23.513Z,11.18
2023-01-26T07:46:12.294Z,10.45
2023-01-26T07:48:57.321Z,11.00
2023-01-26T07:51:42.618Z,9.70
2023-01-26T07:54:27.885Z,11.13
2023-01-26T07:57:13.193Z,11.25
2023-01-26T07:59:58.670Z,10.57
2023-01-26T08:02:44.131Z,10.35
2023-01-26T08:05:29.505Z,10.07
2023-01-26T08:08:15.188Z,11.60
2023-01-26T08:11:01.518Z,11.10
2023-01-26T08:13:46.716Z,10.60
2023-01-26T08:16:32.066Z,11.25
2023-01-26T08:19:17.399Z,11.95
2023-01-26T08:22:02.627Z,11.90
2023-01-26T08:24:48.319Z,10.52
2023-01-26T08:27:36.640Z,10.60
2023-01-26T08:30:22.006Z,11.35
2023-01-26T08:33:07.059Z,11.25
2023-01-26T08:35:52.607Z,10.40
2023-01-26T08:38:37.974Z,11.10
2023-01-26T08:41:23.184Z,10.88
2023-01-26T08:44:10.376Z,10.90
2023-01-26T08:46:55.499Z,12.10
2023-01-26T08:49:40.833Z,11.55
2023-01-26T08:52:26.199Z,11.40
2023-01-26T08:55:11.900Z,10.63
2023-01-26T08:57:57.589Z,11.98
2023-01-26T09:00:43.104Z,11.45
2023-01-26T09:03:28.334Z,12.48
2023-01-26T09:06:15.773Z,11.13
2023-01-26T09:09:01.373Z,11.48
2023-01-26T09:11:47.117Z,10.32
2023-01-26T09:14:32.326Z,10.18
2023-01-26T09:17:17.585Z,11.38
2023-01-26T09:20:04.822Z,10.85
2023-01-26T09:22:50.088Z,11.32
2023-01-26T09:25:39.731Z,10.18
2023-01-26T09:28:24.997Z,9.85
2023-01-26T09:31:11.504Z,10.38
2023-01-26T09:33:57.202Z,10.25
2023-01-26T09:36:42.165Z,10.65
2023-01-26T09:39:27.485Z,9.82
2023-01-26T09:42:30.550Z,10.63
2023-01-26T09:45:24.717Z,10.40
2023-01-26T09:48:28.598Z,9.70
2023-01-26T09:51:37.623Z,10.50
2023-01-26T09:54:26.744Z,10.38
2023-01-26T09:57:14.688Z,10.32
2023-01-26T10:00:09.571Z,10.02
2023-01-26T10:03:13.193Z,9.85
2023-01-26T10:06:04.692Z,10.90
2023-01-26T10:09:34.877Z,9.57
2023-01-26T10:12:30.416Z,11.55
2023-01-26T10:15:41.506Z,10.05
2023-01-26T10:18:32.333Z,10.88
2023-01-26T10:21:22.510Z,11.60
2023-01-26T10:24:11.020Z,12.18
2023-01-26T10:26:58.527Z,12.15
2023-01-26T10:29:44.060Z,12.32
2023-01-26T10:32:29.546Z,12.00
2023-01-26T10:35:20.427Z,12.07
2023-01-26T10:38:34.023Z,12.60
2023-01-26T10:41:25.675Z,11.48
2023-01-26T10:44:11.626Z,11.70
2023-01-26T10:47:15.423Z,12.82
2023-01-26T10:50:21.368Z,12.68
2023-01-26T10:53:13.744Z,11.63
2023-01-26T10:56:13.363Z,11.85
2023-01-26T10:59:03.030Z,10.77
2023-01-26T11:01:53.704Z,11.90
2023-01-26T11:04:39.812Z,12.00
2023-01-26T11:07:34.123Z,10.70
2023-01-26T11:10:29.725Z,11.30
2023-01-26T11:13:20.431Z,11.35
2023-01-26T11:16:22.664Z,11.13
2023-01-26T11:19:25.132Z,10.60
2023-01-26T11:22:20.342Z,10.73
2023-01-26T11:25:27.575Z,11.90
2023-01-26T11:28:30.985Z,12.05
2023-01-26T11:31:31.319Z,13.60
2023-01-26T11:34:40.407Z,14.57
2023-01-26T11:37:46.553Z,15.85
2023-01-26T11:40:50.978Z,12.82
2023-01-26T11:44:18.707Z,12.13
2023-01-26T11:47:14.815Z,11.57
2023-01-26T11:50:21.860Z,12.30
2023-01-26T11:53:24.734Z,11.77
2023-01-26T11:56:14.815Z,12.02
2023-01-26T11:59:12.294Z,12.43
2023-01-26T12:02:20.150Z,12.43
2023-01-26T12:05:17.550Z,12.00
2023-01-26T12:08:25.371Z,11.23
2023-01-26T12:11:28.276Z,12.38
2023-01-26T12:14:29.755Z,14.02
2023-01-26T12:17:34.874Z,13.00
2023-01-26T12:20:43.278Z,12.38
2023-01-26T12:23:47.660Z,12.35
2023-01-26T12:26:40.908Z,11.55
2023-01-26T12:29:38.488Z,12.40
2023-01-26T12:32:24.687Z,11.88
2023-01-26T12:35:13.859Z,11.68
2023-01-26T12:38:17.560Z,10.95
2023-01-26T12:41:08.863Z,13.35
2023-01-26T12:44:25.860Z,11.15
2023-01-26T12:47:20.327Z,10.15
2023-01-26T12:50:29.881Z,9.35
2023-01-26T12:53:30.115Z,9.80
2023-01-26T12:56:31.898Z,10.35
2023-01-26T12:59:39.220Z,11.35
2023-01-26T13:02:31.754Z,9.45
2023-01-26T13:05:32.697Z,8.88
2023-01-26T13:08:30.338Z,8.63
2023-01-26T13:11:45.995Z,9.20
2023-01-26T13:14:32.935Z,9.30
2023-01-26T13:17:18.992Z,8.85
2023-01-26T13:20:27.120Z,8.35
2023-01-26T13:23:41.810Z,8.35
2023-01-26T13:26:33.277Z,8.55
2023-01-26T13:29:33.222Z,8.35
2023-01-26T13:32:18.505Z,8.40
2023-01-26T13:35:05.733Z,7.75
2023-01-26T13:38:00.597Z,8.02
2023-01-26T13:40:49.818Z,9.00
2023-01-26T13:43:50.429Z,8.40
2023-01-26T13:46:47.106Z,8.52
2023-01-26T13:49:40.666Z,7.38
2023-01-26T13:52:27.794Z,8.73
2023-01-26T13:55:22.332Z,8.15
2023-01-26T13:58:12.681Z,8.35
2023-01-26T14:01:13.577Z,8.57
2023-01-26T14:04:06.354Z,8.13
2023-01-26T14:07:02.877Z,7.63
2023-01-26T14:09:51.230Z,8.88
2023-01-26T14:12:48.801Z,9.30
2023-01-26T14:15:34.955Z,11.25
2023-01-26T14:18:22.423Z,10.57
2023-01-26T14:21:18.671Z,10.70
2023-01-26T14:24:09.107Z,11.05
2023-01-26T14:26:54.750Z,9.85
2023-01-26T14:29:39.823Z,11.55
2023-01-26T14:32:29.322Z,11.15
2023-01-26T14:35:23.221Z,10.88
2023-01-26T14:38:11.655Z,11.20
2023-01-26T14:40:59.859Z,11.80
2023-01-26T14:43:45.122Z,9.93
2023-01-26T14:46:59.678Z,10.70
2023-01-26T14:49:44.985Z,10.85
2023-01-26T14:52:34.185Z,9.63
2023-01-26T14:55:19.326Z,9.77
2023-01-26T14:58:15.561Z,10.32
2023-01-26T15:01:01.808Z,10.13
2023-01-26T15:03:51.329Z,10.13
2023-01-26T15:06:36.743Z,11.75
2023-01-26T15:09:28.668Z,12.45
2023-01-26T15:12:17.066Z,14.48
2023-01-26T15:15:03.007Z,11.10
2023-01-26T15:18:00.976Z,13.10
2023-01-26T15:21:00.151Z,12.15
2023-01-26T15:23:50.507Z,13.55
2023-01-26T15:26:36.521Z,13.43
2023-01-26T15:29:31.995Z,13.77
2023-01-26T15:32:32.529Z,14.82
2023-01-26T15:35:22.290Z,13.55
2023-01-26T15:38:13.677Z,15.77
2023-01-26T15:40:59.355Z,15.23
2023-01-26T15:43:44.379Z,15.07
2023-01-26T15:46:30.056Z,17.10
2023-01-26T15:49:19.803Z,16.48
2023-01-26T15:52:34.318Z,17.40
2023-01-26T15:55:24.418Z,15.40
2023-01-26T15:58:10.042Z,15.98
2023-01-26T16:00:55.325Z,15.88
2023-01-26T16:03:40.595Z,15.70
2023-01-26T16:06:28.131Z,16.02
2023-01-26T16:09:13.296Z,16.40
2023-01-26T16:11:58.688Z,16.33
2023-01-26T16:14:44.436Z,14.85
2023-01-26T16:17:29.695Z,17.83
2023-01-26T16:20:15.139Z,17.45
2023-01-26T16:23:00.720Z,16.48
2023-01-26T16:25:46.556Z,17.13
2023-01-26T16:28:31.782Z,17.52
2023-01-26T16:31:22.836Z,17.40
2023-01-26T16:34:09.528Z,16.83
2023-01-26T16:36:56.327Z,16.70
2023-01-26T16:39:41.850Z,18.55
2023-01-26T16:42:27.030Z,18.10
2023-01-26T16:45:34.549Z,20.88
2023-01-26T16:48:21.379Z,18.52
2023-01-26T16:51:21.774Z,18.70
2023-01-26T16:54:06.969Z,18.33
2023-01-26T16:56:52.645Z,17.58
2023-01-26T16:59:38.041Z,17.17
2023-01-26T17:02:26.278Z,17.00
2023-01-26T17:05:20.433Z,17.70
2023-01-26T17:08:06.044Z,16.58
2023-01-26T17:11:01.563Z,17.08
2023-01-26T17:13:48.029Z,15.75
2023-01-26T17:16:33.319Z,16.23
2023-01-26T17:19:18.633Z,17.50
2023-01-26T17:22:03.696Z,18.92
2023-01-26T17:24:49.738Z,19.27
2023-01-26T17:27:35.308Z,17.02
2023-01-26T17:30:20.744Z,17.17
2023-01-26T17:33:05.900Z,17.00
2023-01-26T17:36:00.278Z,16.58
2023-01-26T17:38:47.158Z,16.27
2023-01-26T17:41:32.436Z,17.08
2023-01-26T17:44:17.904Z,18.88
2023-01-26T17:47:03.104Z,17.27
2023-01-26T17:49:48.691Z,17.23
2023-01-26T17:52:36.297Z,18.42
2023-01-26T17:55:21.439Z,19.05
2023-01-26T17:58:10.796Z,18.92
2023-01-26T18:03:42.525Z,17.80
2023-01-26T18:06:29.268Z,18.23
2023-01-26T18:09:15.105Z,18.20
2023-01-26T18:12:00.375Z,19.55
2023-01-26T18:14:45.961Z,19.38
2023-01-26T18:17:31.039Z,19.45
2023-01-26T18:20:17.545Z,19.48
2023-01-26T18:23:02.827Z,18.77
2023-01-26T18:25:48.749Z,18.52
2023-01-26T18:28:33.832Z,20.20
2023-01-26T18:31:27.010Z,18.40
2023-01-26T18:34:12.160Z,18.05
2023-01-26T18:36:57.246Z,16.92
2023-01-26T18:39:42.804Z,16.67
2023-01-26T18:42:27.998Z,17.00
2023-01-26T18:45:13.698Z,17.10
2023-01-26T18:47:59.027Z,15.63
2023-01-26T18:50:48.497Z,16.95
2023-01-26T18:53:33.769Z,17.33
2023-01-26T18:56:19.279Z,17.23
2023-01-26T18:59:04.314Z,18.05
2023-01-26T19:01:50.521Z,17.55
2023-01-26T19:04:35.578Z,16.30
2023-01-26T19:07:21.018Z,16.52
2023-01-26T19:10:06.637Z,17.35
2023-01-26T19:12:52.220Z,16.85
2023-01-26T19:15:38.037Z,15.50
2023-01-26T19:18:23.854Z,17.65
2023-01-26T19:21:09.962Z,16.52
2023-01-26T19:23:58.397Z,18.08
2023-01-26T19:26:43.748Z,16.90
2023-01-26T19:29:28.988Z,17.35
2023-01-26T19:32:14.037Z,18.63
2023-01-26T19:34:59.399Z,19.13
2023-01-26T19:37:44.745Z,16.55
2023-01-26T19:40:31.781Z,17.23
2023-01-26T19:43:21.192Z,19.17
2023-01-26T19:46:08.464Z,19.83
2023-01-26T19:48:53.930Z,19.30
2023-01-26T19:51:39.185Z,18.20
2023-01-26T19:54:24.755Z,19.48
2023-01-26T19:57:10.888Z,18.67
2023-01-26T19:59:56.228Z,17.63
2023-01-26T20:02:41.470Z,17.95
2023-01-26T20:05:30.104Z,18.48
2023-01-26T20:08:15.565Z,18.60
2023-01-26T20:11:09.156Z,18.77
2023-01-26T20:13:56.264Z,17.90
2023-01-26T20:16:41.807Z,17.60
2023-01-26T20:19:28.144Z,17.75
2023-01-26T20:22:13.761Z,17.75
2023-01-26T20:25:00.184Z,19.63
2023-01-26T20:27:45.459Z,17.13
2023-01-26T20:30:30.520Z,16.23
2023-01-26T20:33:15.727Z,17.17
2023-01-26T20:36:05.631Z,16.23
2023-01-26T20:38:51.445Z,18.90
2023-01-26T20:41:37.296Z,17.75
2023-01-26T20:44:22.406Z,16.70
2023-01-26T20:47:08.158Z,15.80
2023-01-26T20:49:55.951Z,15.40
2023-01-26T20:52:43.630Z,15.77
2023-01-26T20:55:29.108Z,16.17
2023-01-26T20:58:14.371Z,15.38
2023-01-26T21:01:11.617Z,15.10
2023-01-26T21:03:56.654Z,15.32
2023-01-26T21:06:42.164Z,14.98
2023-01-26T21:09:27.490Z,17.10
2023-01-26T21:12:13.892Z,15.35
2023-01-26T21:15:00.676Z,16.15
2023-01-26T21:17:46.034Z,15.55
2023-01-26T21:20:31.446Z,16.65
2023-01-26T21:23:17.029Z,16.35
2023-01-26T21:26:05.858Z,15.95
2023-01-26T21:28:55.543Z,16.50
2023-01-26T21:31:41.148Z,15.50
2023-01-26T21:34:26.392Z,15.57
2023-01-26T21:37:11.698Z,15.43
2023-01-26T21:39:56.981Z,14.23
2023-01-26T21:42:42.353Z,14.05
2023-01-26T21:45:46.204Z,14.70
2023-01-26T21:48:39.199Z,13.63
2023-01-26T21:51:44.844Z,15.10
2023-01-26T21:54:30.454Z,14.65
2023-01-26T21:57:36.463Z,13.38
2023-01-26T22:00:22.623Z,15.57
2023-01-26T22:03:10.153Z,13.93
2023-01-26T22:05:56.739Z,14.48
2023-01-26T22:08:42.124Z,13.32
2023-01-26T22:11:28.294Z,13.93
2023-01-26T22:14:16.116Z,13.05
2023-01-26T22:17:01.368Z,12.88
2023-01-26T22:19:47.066Z,14.15
2023-01-26T22:22:32.173Z,14.05
2023-01-26T22:25:17.594Z,14.65
2023-01-26T22:28:03.422Z,12.85
2023-01-26T22:30:48.819Z,13.60
2023-01-26T22:33:35.413Z,13.90
2023-01-26T22:36:22.205Z,13.52
2023-01-26T22:39:07.949Z,12.60
2023-01-26T22:41:53.356Z,12.20
2023-01-26T22:44:38.504Z,11.90
2023-01-26T22:47:23.949Z,11.02
2023-01-26T22:50:10.637Z,12.13
2023-01-26T22:52:57.199Z,12.00
2023-01-26T22:55:43.699Z,11.32
2023-01-26T22:58:30.300Z,13.10
2023-01-26T23:01:17.976Z,12.77
2023-01-26T23:04:03.608Z,12.82
2023-01-26T23:06:48.716Z,12.45
2023-01-26T23:09:34.480Z,12.70
2023-01-26T23:12:20.321Z,11.85
2023-01-26T23:15:06.074Z,11.93
2023-01-26T23:17:52.911Z,11.32
2023-01-26T23:20:38.338Z,10.77
2023-01-26T23:23:24.593Z,10.00
2023-01-26T23:26:10.620Z,10.70
2023-01-26T23:28:55.743Z,10.05
2023-01-26T23:31:41.177Z,10.70
2023-01-26T23:34:26.186Z,10.95
2023-01-26T23:37:11.403Z,11.15
2023-01-26T23:39:56.912Z,10.43
2023-01-26T23:43:00.361Z,10.15
2023-01-26T23:45:49.059Z,10.65
2023-01-26T23:48:34.363Z,10.43
2023-01-26T23:51:19.449Z,9.93
2023-01-26T23:54:04.859Z,9.52
2023-01-26T23:56:50.354Z,10.93
2023-01-26T23:59:35.479Z,11.13
